Time;durP1;ratioP1;P1;durP2;ratioP2;P2;SDS_P1;SDS_P2;PMS_P1;PMS_P2;Temp;Humidity;BMP_temperature;BMP_pressure;BME280_temperature;BME280_humidity;BME280_pressure;Samples;Min_cycle;Max_cycle;Signal;HPM_P1;HPM_P2
2021/05/01 00:02:14;;;;;;;1.80;1.20;;;;;;;-148.56;100.00;61375.16;4956880;28;20041;-27
2021/05/01 00:05:37;;;;;;;3.30;1.20;;;;;;;-148.56;100.00;61375.16;4969566;28;20605;-26
2021/05/01 00:09:01;;;;;;;2.40;1.70;;;;;;;-148.56;100.00;61375.16;4962225;28;20069;-32
2021/05/01 00:12:25;;;;;;;3.30;1.10;;;;;;;-148.56;100.00;61375.16;4955002;28;20540;-31
2021/05/01 00:15:49;;;;;;;6.07;1.35;;;;;;;-148.56;100.00;61375.16;4951665;28;20062;-27
2021/05/01 00:19:13;;;;;;;1.70;1.13;;;;;;;-148.56;100.00;61375.16;4963277;28;20034;-29
2021/05/01 00:22:37;;;;;;;1.20;1.08;;;;;;;-148.56;100.00;61375.16;4964256;28;20504;-29
2021/05/01 00:26:01;;;;;;;1.35;1.08;;;;;;;-148.56;100.00;61375.16;4966651;28;20038;-29
2021/05/01 00:29:25;;;;;;;1.67;1.20;;;;;;;-148.56;100.00;61375.16;4966294;28;20030;-28
2021/05/01 00:32:49;;;;;;;1.42;0.90;;;;;;;-148.56;100.00;61375.16;4966554;28;20030;-27
2021/05/01 00:36:13;;;;;;;2.38;1.27;;;;;;;-148.56;100.00;61375.16;4964999;28;20035;-27
2021/05/01 00:39:37;;;;;;;1.73;1.00;;;;;;;-148.56;100.00;61375.16;4975916;28;20579;-30
2021/05/01 00:43:01;;;;;;;1.50;0.98;;;;;;;-148.56;100.00;61375.16;4961752;28;20116;-33
2021/05/01 00:46:25;;;;;;;1.67;1.15;;;;;;;-148.56;100.00;61375.16;4967839;28;20589;-29
2021/05/01 00:49:49;;;;;;;1.27;0.90;;;;;;;-148.56;100.00;61375.16;4957426;28;20038;-27
2021/05/01 00:53:13;;;;;;;1.58;0.98;;;;;;;-148.56;100.00;61375.16;4969806;28;20034;-28
2021/05/01 00:56:37;;;;;;;1.45;1.00;;;;;;;-148.56;100.00;61375.16;4963654;28;20631;-29
2021/05/01 01:00:01;;;;;;;1.40;1.05;;;;;;;-148.56;100.00;61375.16;4969569;28;20069;-27
2021/05/01 01:03:25;;;;;;;1.15;0.80;;;;;;;-148.56;100.00;61375.16;4962322;28;20038;-28
2021/05/01 01:06:48;;;;;;;2.10;1.08;;;;;;;-148.56;100.00;61375.16;4962963;28;20037;-26
2021/05/01 01:10:12;;;;;;;2.45;0.73;;;;;;;-148.56;100.00;61375.16;4958429;28;20031;-25
2021/05/01 01:13:36;;;;;;;1.23;0.82;;;;;;;-148.56;100.00;61375.16;4959216;28;20034;-27
2021/05/01 01:17:00;;;;;;;1.80;0.93;;;;;;;-148.56;100.00;61375.16;4959923;28;20069;-29
2021/05/01 01:20:27;;;;;;;1.00;0.90;;;;;;;-148.56;100.00;61375.16;4959815;28;20374;-28
2021/05/01 01:23:51;;;;;;;1.52;0.80;;;;;;;-148.56;100.00;61375.16;4964600;28;20415;-28
2021/05/01 01:27:15;;;;;;;1.48;1.00;;;;;;;-148.56;100.00;61375.16;4963324;28;20138;-28
2021/05/01 01:30:39;;;;;;;1.42;0.90;;;;;;;-148.56;100.00;61375.16;4957238;28;20027;-28
2021/05/01 01:34:04;;;;;;;1.35;1.25;;;;;;;-148.56;100.00;61375.16;4968031;28;20060;-26
2021/05/01 01:37:28;;;;;;;1.33;0.95;;;;;;;-148.56;100.00;61375.16;4965439;28;20054;-28
2021/05/01 01:40:52;;;;;;;1.70;0.90;;;;;;;-148.56;100.00;61375.16;4953093;28;20026;-30
2021/05/01 01:44:16;;;;;;;1.17;0.82;;;;;;;-148.56;100.00;61375.16;4961554;28;20053;-28
2021/05/01 01:47:40;;;;;;;2.25;1.05;;;;;;;-148.56;100.00;61375.16;4955770;28;20120;-31
2021/05/01 01:51:04;;;;;;;2.47;0.93;;;;;;;-148.56;100.00;61375.16;4967527;28;20038;-28
2021/05/01 01:54:28;;;;;;;2.28;0.90;;;;;;;-148.56;100.00;61375.16;4968975;28;20216;-30
2021/05/01 01:57:52;;;;;;;0.95;0.90;;;;;;;-148.56;100.00;61375.16;4964070;28;20109;-26
2021/05/01 02:01:17;;;;;;;1.00;0.90;;;;;;;-148.56;100.00;61375.16;4960923;28;20066;-27
2021/05/01 02:04:40;;;;;;;0.80;0.75;;;;;;;-148.56;100.00;61375.16;4963770;28;20525;-29
2021/05/01 02:08:04;;;;;;;2.17;0.52;;;;;;;-148.56;100.00;61375.16;4958521;28;20057;-31
2021/05/01 02:11:28;;;;;;;1.75;0.75;;;;;;;-148.56;100.00;61375.16;4963209;28;20037;-30
2021/05/01 02:14:52;;;;;;;2.10;0.82;;;;;;;-148.56;100.00;61375.16;4958679;28;20105;-27
2021/05/01 02:18:16;;;;;;;2.22;0.85;;;;;;;-148.56;100.00;61375.16;4962576;28;20023;-27
2021/05/01 02:21:40;;;;;;;0.90;0.90;;;;;;;-148.56;100.00;61375.16;4962861;28;20034;-28
2021/05/01 02:25:08;;;;;;;0.95;0.60;;;;;;;-148.56;100.00;61375.16;4962801;28;20071;-27
2021/05/01 02:28:32;;;;;;;0.88;0.68;;;;;;;-148.56;100.00;61375.16;4964342;28;20057;-24
2021/05/01 02:31:56;;;;;;;1.58;0.77;;;;;;;-148.56;100.00;61375.16;4960836;28;20081;-28
2021/05/01 02:35:20;;;;;;;2.65;1.10;;;;;;;-148.56;100.00;61375.16;4967591;28;20444;-27
2021/05/01 02:38:44;;;;;;;1.35;0.70;;;;;;;-148.56;100.00;61375.16;4966864;28;20050;-25
2021/05/01 02:42:08;;;;;;;1.08;0.70;;;;;;;-148.56;100.00;61375.16;4960154;28;20031;-28
2021/05/01 02:45:34;;;;;;;1.17;0.90;;;;;;;-148.56;100.00;61375.16;4959792;28;20559;-26
2021/05/01 02:48:58;;;;;;;1.02;0.90;;;;;;;-148.56;100.00;61375.16;4955887;28;20045;-26
2021/05/01 02:52:22;;;;;;;1.00;0.65;;;;;;;-148.56;100.00;61375.16;4968006;28;20039;-28
2021/05/01 02:55:48;;;;;;;1.00;0.75;;;;;;;-148.56;100.00;61375.16;4966077;28;20112;-27
2021/05/01 02:59:12;;;;;;;1.48;0.68;;;;;;;-148.56;100.00;61375.16;4956312;28;20035;-28
2021/05/01 03:02:36;;;;;;;6.00;1.90;;;;;;;-148.56;100.00;61375.16;4958294;28;20035;-29
2021/05/01 03:06:00;;;;;;;3.33;0.93;;;;;;;-148.56;100.00;61375.16;4963036;28;20034;-28
2021/05/01 03:09:24;;;;;;;1.27;0.93;;;;;;;-148.56;100.00;61375.16;4961905;28;20034;-29
2021/05/01 03:12:47;;;;;;;2.85;0.80;;;;;;;-148.56;100.00;61375.16;4961790;28;20026;-30
2021/05/01 03:16:11;;;;;;;5.72;1.00;;;;;;;-148.56;100.00;61375.16;4967973;28;20041;-28
2021/05/01 03:19:35;;;;;;;1.40;0.90;;;;;;;-148.56;100.00;61375.16;4959457;28;20632;-28
2021/05/01 03:23:00;;;;;;;1.00;0.80;;;;;;;-148.56;100.00;61375.16;4959406;28;20038;-29
2021/05/01 03:26:24;;;;;;;1.92;0.90;;;;;;;-148.56;100.00;61375.16;4964603;28;20150;-30
2021/05/01 03:29:48;;;;;;;1.20;0.75;;;;;;;-148.56;100.00;61375.16;4956295;28;20579;-27
2021/05/01 03:33:12;;;;;;;1.15;0.70;;;;;;;-148.56;100.00;61375.16;4955144;28;20045;-29
2021/05/01 03:36:36;;;;;;;0.68;0.68;;;;;;;-148.56;100.00;61375.16;4949035;28;20035;-28
2021/05/01 03:40:00;;;;;;;2.33;0.80;;;;;;;-148.56;100.00;61375.16;4953038;28;20095;-29
2021/05/01 03:43:24;;;;;;;1.00;0.90;;;;;;;-148.56;100.00;61375.16;4951553;28;20188;-27
2021/05/01 03:46:47;;;;;;;1.40;0.90;;;;;;;-148.56;100.00;61375.16;4956198;28;20026;-28
2021/05/01 03:50:11;;;;;;;1.00;0.73;;;;;;;-148.56;100.00;61375.16;4960133;28;20096;-26
2021/05/01 03:53:35;;;;;;;1.60;1.20;;;;;;;-148.56;100.00;61375.16;4960321;28;20062;-31
2021/05/01 03:56:59;;;;;;;1.13;0.70;;;;;;;-148.56;100.00;61375.16;4964201;28;20110;-30
2021/05/01 04:00:23;;;;;;;0.73;0.52;;;;;;;-148.56;100.00;61375.16;4957211;28;20076;-26
2021/05/01 04:03:47;;;;;;;0.60;0.60;;;;;;;-148.56;100.00;61375.16;4960386;28;20507;-28
2021/05/01 04:07:11;;;;;;;0.60;0.60;;;;;;;-148.56;100.00;61375.16;4964230;28;20686;-25
2021/05/01 04:10:35;;;;;;;0.85;0.85;;;;;;;-148.56;100.00;61375.16;4956149;28;20124;-28
2021/05/01 04:13:59;;;;;;;1.42;0.90;;;;;;;-148.56;100.00;61375.16;4963402;28;20067;-29
2021/05/01 04:17:23;;;;;;;0.80;0.60;;;;;;;-148.56;100.00;61375.16;4953356;28;20134;-26
2021/05/01 04:20:47;;;;;;;1.05;0.60;;;;;;;-148.56;100.00;61375.16;4960493;28;20441;-27
2021/05/01 04:24:11;;;;;;;1.52;0.93;;;;;;;-148.56;100.00;61375.16;4954419;28;20030;-27
2021/05/01 04:27:34;;;;;;;1.38;1.00;;;;;;;-148.56;100.00;61375.16;4957821;28;20035;-28
2021/05/01 04:30:58;;;;;;;0.60;0.50;;;;;;;-148.56;100.00;61375.16;4959029;28;20042;-26
2021/05/01 04:34:22;;;;;;;1.02;0.70;;;;;;;-148.56;100.00;61375.16;4959773;28;22347;-24
2021/05/01 04:37:46;;;;;;;1.30;0.60;;;;;;;-148.56;100.00;61375.16;4962721;28;20027;-28
2021/05/01 04:41:11;;;;;;;1.13;0.70;;;;;;;-148.56;100.00;61375.16;4959964;28;20195;-27
2021/05/01 04:44:35;;;;;;;0.80;0.52;;;;;;;-148.56;100.00;61375.16;4953647;28;20034;-27
2021/05/01 04:47:58;;;;;;;1.80;0.63;;;;;;;-148.56;100.00;61375.16;4959093;28;20034;-26
2021/05/01 04:51:22;;;;;;;2.05;0.70;;;;;;;-148.56;100.00;61375.16;4957874;28;20170;-27
2021/05/01 04:54:46;;;;;;;0.57;0.52;;;;;;;-148.56;100.00;61375.16;4964047;28;20030;-29
2021/05/01 04:58:10;;;;;;;1.10;0.52;;;;;;;-148.56;100.00;61375.16;4964167;28;20034;-28
2021/05/01 05:01:34;;;;;;;2.28;1.23;;;;;;;-148.56;100.00;61375.16;4961198;28;20030;-30
2021/05/01 05:04:58;;;;;;;0.70;0.60;;;;;;;-148.56;100.00;61375.16;4955035;28;20070;-28
2021/05/01 05:08:22;;;;;;;0.77;0.70;;;;;;;-148.56;100.00;61375.16;4953780;28;20026;-27
2021/05/01 05:11:46;;;;;;;0.73;0.57;;;;;;;-148.56;100.00;61375.16;4958204;28;20065;-25
2021/05/01 05:15:10;;;;;;;1.48;0.80;;;;;;;-148.56;100.00;61375.16;4957072;28;20066;-27
2021/05/01 05:18:34;;;;;;;0.60;0.60;;;;;;;-148.56;100.00;61375.16;4966158;28;20057;-32
2021/05/01 05:21:58;;;;;;;0.70;0.70;;;;;;;-148.56;100.00;61375.16;4961830;28;20030;-30
2021/05/01 05:25:21;;;;;;;0.65;0.65;;;;;;;-148.56;100.00;61375.16;4953572;28;22077;-27
2021/05/01 05:28:45;;;;;;;0.65;0.65;;;;;;;-148.56;100.00;61375.16;4963626;28;20054;-29
2021/05/01 05:32:09;;;;;;;0.85;0.60;;;;;;;-148.56;100.00;61375.16;4965534;28;20109;-28
2021/05/01 05:35:33;;;;;;;0.60;0.52;;;;;;;-148.56;100.00;61375.16;4959207;28;20035;-27
2021/05/01 05:38:57;;;;;;;0.88;0.70;;;;;;;-148.56;100.00;61375.16;4963963;28;20030;-28
2021/05/01 05:42:22;;;;;;;1.27;0.90;;;;;;;-148.56;100.00;61375.16;4964876;28;20042;-26
2021/05/01 05:45:47;;;;;;;0.60;0.50;;;;;;;-148.56;100.00;61375.16;4964282;28;20042;-30
2021/05/01 05:49:11;;;;;;;0.60;0.60;;;;;;;-148.56;100.00;61375.16;4955325;28;20069;-27
2021/05/01 05:52:35;;;;;;;1.23;0.88;;;;;;;-148.56;100.00;61375.16;4965419;28;20084;-29
2021/05/01 05:55:59;;;;;;;0.73;0.60;;;;;;;-148.56;100.00;61375.16;4962890;28;20034;-28
2021/05/01 05:59:23;;;;;;;1.10;0.50;;;;;;;-148.56;100.00;61375.16;4959624;28;20057;-29
2021/05/01 06:02:46;;;;;;;1.05;0.70;;;;;;;-148.56;100.00;61375.16;4971120;28;20023;-29
2021/05/01 06:06:17;;;;;;;0.52;0.52;;;;;;;-148.56;100.00;61375.16;4957449;28;20590;-29
2021/05/01 06:09:41;;;;;;;3.08;0.50;;;;;;;-148.56;100.00;61375.16;4975625;28;20035;-30
2021/05/01 06:13:09;;;;;;;0.60;0.60;;;;;;;-148.56;100.00;61375.16;4962125;28;20117;-28
2021/05/01 06:16:33;;;;;;;0.50;0.50;;;;;;;-148.56;100.00;61375.16;4968096;28;20038;-28
2021/05/01 06:19:57;;;;;;;3.38;0.65;;;;;;;-148.56;100.00;61375.16;4971186;28;20161;-29
2021/05/01 06:23:21;;;;;;;1.60;0.90;;;;;;;-148.56;100.00;61375.16;4957617;28;20031;-26
2021/05/01 06:26:45;;;;;;;2.30;1.20;;;;;;;-148.56;100.00;61375.16;4956797;28;20031;-27
2021/05/01 06:30:09;;;;;;;2.63;1.30;;;;;;;-148.56;100.00;61375.16;4958983;28;20049;-27
2021/05/01 06:33:38;;;;;;;6.93;2.28;;;;;;;-148.56;100.00;61375.16;4963619;28;20118;-28
2021/05/01 06:37:02;;;;;;;3.08;1.10;;;;;;;-148.56;100.00;61375.16;4952128;28;20030;-27
2021/05/01 06:40:32;;;;;;;10.90;2.40;;;;;;;-148.56;100.00;61375.16;4954258;28;20035;-27
2021/05/01 06:44:02;;;;;;;11.20;2.40;;;;;;;-148.56;100.00;61375.16;4956634;28;20116;-28
2021/05/01 06:47:26;;;;;;;3.40;1.00;;;;;;;-148.56;100.00;61375.16;4955580;28;20030;-28
2021/05/01 06:51:00;;;;;;;3.55;1.20;;;;;;;-148.56;100.00;61375.16;4956823;28;20560;-28
2021/05/01 06:54:24;;;;;;;1.27;0.90;;;;;;;-148.56;100.00;61375.16;4954401;28;20030;-29
2021/05/01 06:57:48;;;;;;;3.97;1.13;;;;;;;-148.56;100.00;61375.16;4949568;28;20030;-28
2021/05/01 07:01:13;;;;;;;1.30;0.80;;;;;;;-148.56;100.00;61375.16;4961520;28;20034;-29
2021/05/01 07:04:38;;;;;;;3.42;1.20;;;;;;;-148.56;100.00;61375.16;4957048;28;20034;-25
2021/05/01 07:08:02;;;;;;;3.95;1.10;;;;;;;-148.56;100.00;61375.16;4948772;28;20035;-29
2021/05/01 07:11:26;;;;;;;3.08;1.20;;;;;;;-148.56;100.00;61375.16;4954669;28;20049;-28
2021/05/01 07:14:49;;;;;;;4.03;1.23;;;;;;;-148.56;100.00;61375.16;4959786;28;20035;-27
2021/05/01 07:18:15;;;;;;;1.40;1.00;;;;;;;-148.56;100.00;61375.16;4959664;28;20109;-30
2021/05/01 07:21:39;;;;;;;2.33;1.00;;;;;;;-148.56;100.00;61375.16;4968210;28;20096;-30
2021/05/01 07:25:03;;;;;;;2.10;1.13;;;;;;;-148.56;100.00;61375.16;4953451;28;20026;-27
2021/05/01 07:28:45;;;;;;;3.20;0.90;;;;;;;-148.56;100.00;61375.16;4956811;28;20043;-30
2021/05/01 07:32:09;;;;;;;2.13;1.05;;;;;;;-148.56;100.00;61375.16;4953631;28;20053;-26
2021/05/01 07:35:33;;;;;;;1.60;0.90;;;;;;;-148.56;100.00;61375.16;4954823;28;20035;-29
2021/05/01 07:38:58;;;;;;;1.08;0.82;;;;;;;-148.56;100.00;61375.16;4950863;28;20026;-26
2021/05/01 07:42:22;;;;;;;0.65;0.50;;;;;;;-148.56;100.00;61375.16;4955925;28;20523;-26
2021/05/01 07:45:47;;;;;;;2.97;1.55;;;;;;;-148.56;100.00;61375.16;4946445;28;20109;-25
2021/05/01 07:49:12;;;;;;;1.88;0.90;;;;;;;-148.56;100.00;61375.16;4956836;28;20125;-28
2021/05/01 07:52:36;;;;;;;1.25;0.63;;;;;;;-148.56;100.00;61375.16;4956022;28;20041;-30
2021/05/01 07:56:00;;;;;;;1.30;0.82;;;;;;;-148.56;100.00;61375.16;4958638;28;20659;-30
2021/05/01 07:59:24;;;;;;;1.75;1.10;;;;;;;-148.56;100.00;61375.16;4950004;28;20026;-25
2021/05/01 08:02:48;;;;;;;2.25;0.98;;;;;;;-148.56;100.00;61375.16;4953386;28;20136;-24
2021/05/01 08:06:12;;;;;;;11.20;9.95;;;;;;;-148.56;100.00;61375.16;4953627;28;20168;-28
2021/05/01 08:09:36;;;;;;;24.75;16.90;;;;;;;-148.56;100.00;61375.16;4954212;28;20049;-28
2021/05/01 08:13:00;;;;;;;13.40;12.00;;;;;;;-148.56;100.00;61375.16;4947091;28;20054;-29
2021/05/01 08:16:24;;;;;;;14.43;8.70;;;;;;;-148.56;100.00;61375.16;4954237;28;20031;-29
2021/05/01 08:19:52;;;;;;;9.93;6.30;;;;;;;-148.56;100.00;61375.16;4954920;28;20030;-28
2021/05/01 08:23:16;;;;;;;11.57;5.43;;;;;;;-148.56;100.00;61375.16;4956210;28;20108;-24
2021/05/01 08:26:39;;;;;;;5.60;4.03;;;;;;;-148.56;100.00;61375.16;4955421;28;20463;-28
2021/05/01 08:30:04;;;;;;;4.40;3.45;;;;;;;-148.56;100.00;61375.16;4953176;28;20058;-28
2021/05/01 08:33:28;;;;;;;4.28;3.13;;;;;;;-148.56;100.00;61375.16;4944936;28;20043;-28
2021/05/01 08:36:52;;;;;;;4.78;2.70;;;;;;;-148.56;100.00;61375.16;4953293;28;20146;-31
2021/05/01 08:40:16;;;;;;;7.10;2.90;;;;;;;-148.56;100.00;61375.16;4953537;28;20457;-29
2021/05/01 08:43:44;;;;;;;10.38;2.47;;;;;;;-148.56;100.00;61375.16;4958126;28;20041;-27
2021/05/01 08:47:07;;;;;;;3.42;2.60;;;;;;;-148.56;100.00;61375.16;4958330;28;20054;-27
2021/05/01 08:50:36;;;;;;;5.78;2.85;;;;;;;-148.56;100.00;61375.16;4957645;28;20676;-25
2021/05/01 08:54:00;;;;;;;5.90;2.55;;;;;;;-148.56;100.00;61375.16;4955544;28;20030;-31
2021/05/01 08:57:31;;;;;;;4.90;2.42;;;;;;;-148.56;100.00;61375.16;4957252;28;20030;-28
2021/05/01 09:00:55;;;;;;;4.90;2.60;;;;;;;-148.56;100.00;61375.16;4948863;28;20031;-29
2021/05/01 09:04:19;;;;;;;5.00;2.80;;;;;;;-148.56;100.00;61375.16;4963333;28;20026;-31
2021/05/01 09:07:43;;;;;;;8.25;2.85;;;;;;;-148.56;100.00;61375.16;4959775;28;20034;-31
2021/05/01 09:11:08;;;;;;;6.63;2.50;;;;;;;-148.56;100.00;61375.16;4956535;28;20033;-27
2021/05/01 09:14:32;;;;;;;7.38;2.83;;;;;;;-148.56;100.00;61375.16;4956288;28;20226;-28
2021/05/01 09:18:03;;;;;;;7.15;2.65;;;;;;;-148.56;100.00;61375.16;4958340;28;20030;-28
2021/05/01 09:21:27;;;;;;;2.75;2.03;;;;;;;-148.56;100.00;61375.16;4955361;28;20030;-28
2021/05/01 09:24:51;;;;;;;5.15;1.95;;;;;;;-148.56;100.00;61375.16;4957242;28;20117;-28
2021/05/01 09:28:17;;;;;;;4.95;2.05;;;;;;;-148.56;100.00;61375.16;4951938;28;20489;-27
2021/05/01 09:31:45;;;;;;;3.15;1.98;;;;;;;-148.56;100.00;61375.16;4954039;28;20035;-26
2021/05/01 09:35:09;;;;;;;5.63;2.10;;;;;;;-148.56;100.00;61375.16;4969340;28;20030;-30
2021/05/01 09:38:34;;;;;;;4.85;2.00;;;;;;;-148.56;100.00;61375.16;4946226;28;20030;-29
2021/05/01 09:42:14;;;;;;;3.70;1.85;;;;;;;-148.56;100.00;61375.16;4957397;28;20027;-32
2021/05/01 09:45:38;;;;;;;3.17;1.75;;;;;;;-148.56;100.00;61375.16;4957552;28;20491;-29
2021/05/01 09:49:10;;;;;;;3.08;1.77;;;;;;;-148.56;100.00;61375.16;4959830;28;20031;-29
2021/05/01 09:52:58;;;;;;;7.80;2.20;;;;;;;-148.56;100.00;61375.16;4951260;28;20066;-32
2021/05/01 09:56:40;;;;;;;2.70;1.63;;;;;;;-148.56;100.00;61375.16;4951164;28;20679;-31
2021/05/01 10:00:05;;;;;;;4.07;1.90;;;;;;;-148.56;100.00;61375.16;4952930;28;20018;-32
2021/05/01 10:03:33;;;;;;;3.30;1.65;;;;;;;-148.56;100.00;61375.16;4953444;28;20057;-30
2021/05/01 10:07:02;;;;;;;2.88;1.65;;;;;;;-148.56;100.00;61375.16;4962031;28;20093;-32
2021/05/01 10:10:37;;;;;;;5.53;1.80;;;;;;;-148.56;100.00;61375.16;4950344;28;20026;-32
2021/05/01 10:14:04;;;;;;;3.08;1.77;;;;;;;-148.56;100.00;61375.16;4952759;28;20525;-28
2021/05/01 10:17:28;;;;;;;4.00;1.65;;;;;;;-148.56;100.00;61375.16;4965270;28;20039;-35
2021/05/01 10:20:57;;;;;;;2.30;1.90;;;;;;;-148.56;100.00;61375.16;4955499;28;20058;-32
2021/05/01 10:24:21;;;;;;;1.98;1.52;;;;;;;-148.56;100.00;61375.16;4954302;28;20052;-32
2021/05/01 10:28:03;;;;;;;4.28;1.98;;;;;;;-148.56;100.00;61375.16;4955249;28;20058;-32
2021/05/01 10:31:46;;;;;;;2.55;1.67;;;;;;;-148.56;100.00;61375.16;4956215;28;20023;-33
2021/05/01 10:35:10;;;;;;;3.03;1.70;;;;;;;-148.56;100.00;61375.16;4965577;28;20496;-29
2021/05/01 10:38:35;;;;;;;2.45;1.80;;;;;;;-148.56;100.00;61375.16;4956270;28;20587;-29
2021/05/01 10:42:01;;;;;;;3.45;2.15;;;;;;;-148.56;100.00;61375.16;4951852;28;20056;-29
2021/05/01 10:45:26;;;;;;;2.70;1.90;;;;;;;-148.56;100.00;61375.16;4960799;28;20031;-27
2021/05/01 10:49:08;;;;;;;3.03;1.83;;;;;;;-148.56;100.00;61375.16;4960489;28;20042;-29
2021/05/01 10:52:35;;;;;;;2.85;1.75;;;;;;;-148.56;100.00;61375.16;4967759;28;20034;-31
2021/05/01 10:56:01;;;;;;;3.58;1.92;;;;;;;-148.56;100.00;61375.16;4970079;28;20034;-27
2021/05/01 10:59:35;;;;;;;4.15;1.67;;;;;;;-148.56;100.00;61375.16;4956316;28;20113;-29
2021/05/01 11:02:59;;;;;;;2.80;1.85;;;;;;;-148.56;100.00;61375.16;4968071;28;20058;-34
2021/05/01 11:06:23;;;;;;;17.15;1.70;;;;;;;-148.56;100.00;61375.16;4953483;28;20034;-31
2021/05/01 11:09:50;;;;;;;3.13;1.67;;;;;;;-148.56;100.00;61375.16;4965247;28;20027;-34
2021/05/01 11:13:23;;;;;;;3.78;1.65;;;;;;;-148.56;100.00;61375.16;4953737;28;20039;-30
2021/05/01 11:17:07;;;;;;;3.45;1.88;;;;;;;-148.56;100.00;61375.16;4956003;28;20034;-30
2021/05/01 11:20:31;;;;;;;4.55;1.60;;;;;;;-148.56;100.00;61375.16;4955113;28;20069;-27
2021/05/01 11:23:55;;;;;;;3.58;1.90;;;;;;;-148.56;100.00;61375.16;4963782;28;20026;-30
2021/05/01 11:27:19;;;;;;;3.85;1.85;;;;;;;-148.56;100.00;61375.16;4944832;28;20240;-34
2021/05/01 11:30:43;;;;;;;5.00;2.65;;;;;;;-148.56;100.00;61375.16;4959358;28;20215;-32
2021/05/01 11:34:07;;;;;;;6.28;2.20;;;;;;;-148.56;100.00;61375.16;4971009;28;20865;-33
2021/05/01 11:37:52;;;;;;;6.40;2.17;;;;;;;-148.56;100.00;61375.16;4973108;28;20577;-32
2021/05/01 11:41:17;;;;;;;3.13;1.75;;;;;;;-148.56;100.00;61375.16;4974502;28;20129;-32
2021/05/01 11:44:41;;;;;;;5.25;2.28;;;;;;;-148.56;100.00;61375.16;4979470;28;20034;-29
2021/05/01 11:48:09;;;;;;;4.00;2.20;;;;;;;-148.56;100.00;61375.16;4977311;28;20389;-29
2021/05/01 11:51:45;;;;;;;4.00;2.15;;;;;;;-148.56;100.00;61375.16;4986114;28;20057;-30
2021/05/01 11:55:27;;;;;;;4.90;2.20;;;;;;;-148.56;100.00;61375.16;4967532;28;22046;-30
2021/05/01 11:59:05;;;;;;;4.43;2.30;;;;;;;-148.56;100.00;61375.16;4973091;28;20029;-27
2021/05/01 12:02:36;;;;;;;7.97;1.92;;;;;;;-148.56;100.00;61375.16;4967091;28;20054;-31
2021/05/01 12:06:13;;;;;;;4.82;2.03;;;;;;;-148.56;100.00;61375.16;4967581;28;20050;-29
2021/05/01 12:09:39;;;;;;;4.60;1.77;;;;;;;-148.56;100.00;61375.16;4970483;28;20224;-31
2021/05/01 12:13:04;;;;;;;4.45;1.77;;;;;;;-148.56;100.00;61375.16;4974818;28;20026;-30
2021/05/01 12:16:32;;;;;;;13.68;2.42;;;;;;;-148.56;100.00;61375.16;4972881;28;20104;-27
2021/05/01 12:20:03;;;;;;;4.85;1.98;;;;;;;-148.56;100.00;61375.16;4974746;28;20030;-29
2021/05/01 12:23:44;;;;;;;7.22;2.15;;;;;;;-148.56;100.00;61375.16;4975563;28;20037;-29
2021/05/01 12:27:33;;;;;;;3.63;1.90;;;;;;;-148.56;100.00;61375.16;4978618;28;20038;-25
2021/05/01 12:30:58;;;;;;;5.43;2.08;;;;;;;-148.56;100.00;61375.16;4977989;28;20629;-27
2021/05/01 12:34:44;;;;;;;4.15;1.67;;;;;;;-148.56;100.00;61375.16;4975966;28;20575;-29
2021/05/01 12:38:09;;;;;;;4.13;1.90;;;;;;;-148.56;100.00;61375.16;4975982;28;20030;-29
2021/05/01 12:41:33;;;;;;;4.47;1.80;;;;;;;-148.56;100.00;61375.16;4966041;28;20042;-31
2021/05/01 12:44:59;;;;;;;3.95;1.90;;;;;;;-148.56;100.00;61375.16;4959351;28;20038;-29
2021/05/01 12:48:50;;;;;;;4.25;1.95;;;;;;;-148.56;100.00;61375.16;4974339;28;20647;-25
2021/05/01 12:52:21;;;;;;;6.15;1.80;;;;;;;-148.56;100.00;61375.16;4969212;28;20033;-25
2021/05/01 12:56:05;;;;;;;4.05;1.85;;;;;;;-148.56;100.00;61375.16;4965107;28;20105;-27
2021/05/01 12:59:32;;;;;;;3.10;1.48;;;;;;;-148.56;100.00;61375.16;4965157;28;20841;-24
2021/05/01 13:03:14;;;;;;;5.55;1.95;;;;;;;-148.56;100.00;61375.16;4962752;28;20027;-27
2021/05/01 13:06:39;;;;;;;5.15;1.77;;;;;;;-148.56;100.00;61375.16;4940240;28;20075;-27
2021/05/01 13:10:06;;;;;;;5.97;1.95;;;;;;;-148.56;100.00;61375.16;4939584;28;20034;-28
2021/05/01 13:13:31;;;;;;;3.20;1.70;;;;;;;-148.56;100.00;61375.16;4936471;28;20039;-27
2021/05/01 13:17:35;;;;;;;4.82;1.80;;;;;;;-148.56;100.00;61375.16;4932287;28;20097;-30
2021/05/01 13:21:03;;;;;;;4.72;1.35;;;;;;;-148.56;100.00;61375.16;4940719;28;20031;-26
2021/05/01 13:24:32;;;;;;;3.83;2.00;;;;;;;-148.56;100.00;61375.16;4940983;28;20389;-30
2021/05/01 13:27:57;;;;;;;2.40;1.63;;;;;;;-148.56;100.00;61375.16;4945829;28;20394;-31
2021/05/01 13:31:30;;;;;;;3.13;1.80;;;;;;;-148.56;100.00;61375.16;4937464;28;20031;-29
2021/05/01 13:34:57;;;;;;;2.03;1.23;;;;;;;-148.56;100.00;61375.16;4941909;28;20035;-32
2021/05/01 13:38:22;;;;;;;2.10;1.42;;;;;;;-148.56;100.00;61375.16;4946542;28;20046;-30
2021/05/01 13:42:02;;;;;;;3.30;1.50;;;;;;;-148.56;100.00;61375.16;4953153;28;20023;-32
2021/05/01 13:45:46;;;;;;;3.85;1.75;;;;;;;-148.56;100.00;61375.16;4937829;28;20039;-30
2021/05/01 13:49:10;;;;;;;2.40;1.40;;;;;;;-148.56;100.00;61375.16;4956695;28;20039;-34
2021/05/01 13:52:40;;;;;;;4.38;1.27;;;;;;;-148.56;100.00;61375.16;4945238;28;20031;-30
2021/05/01 13:56:26;;;;;;;2.25;1.30;;;;;;;-148.56;100.00;61375.16;4942396;28;20038;-36
2021/05/01 14:00:01;;;;;;;2.63;1.52;;;;;;;-148.56;100.00;61375.16;4944283;28;20058;-35
2021/05/01 14:03:37;;;;;;;2.30;1.45;;;;;;;-148.56;100.00;61375.16;4944643;28;20033;-32
2021/05/01 14:07:02;;;;;;;2.28;1.10;;;;;;;-148.56;100.00;61375.16;4955170;28;20141;-30
2021/05/01 14:10:30;;;;;;;4.00;1.77;;;;;;;-148.56;100.00;61375.16;4950716;28;20018;-30
2021/05/01 14:13:54;;;;;;;2.75;1.13;;;;;;;-148.56;100.00;61375.16;4940994;28;20035;-28
2021/05/01 14:17:18;;;;;;;2.03;1.20;;;;;;;-148.56;100.00;61375.16;4950052;28;20078;-30
2021/05/01 14:20:44;;;;;;;2.15;1.30;;;;;;;-148.56;100.00;61375.16;4951616;28;22634;-30
2021/05/01 14:24:12;;;;;;;1.73;1.20;;;;;;;-148.56;100.00;61375.16;4954391;28;20619;-30
2021/05/01 14:27:48;;;;;;;1.52;1.23;;;;;;;-148.56;100.00;61375.16;4948010;28;20035;-30
2021/05/01 14:31:16;;;;;;;1.70;1.15;;;;;;;-148.56;100.00;61375.16;4943891;28;20809;-30
2021/05/01 14:34:50;;;;;;;3.20;1.25;;;;;;;-148.56;100.00;61375.16;4940852;28;20433;-34
2021/05/01 14:38:14;;;;;;;2.45;1.15;;;;;;;-148.56;100.00;61375.16;4943275;28;20030;-29
2021/05/01 14:41:39;;;;;;;2.92;1.50;;;;;;;-148.56;100.00;61375.16;4944503;28;20042;-32
2021/05/01 14:45:07;;;;;;;1.33;1.15;;;;;;;-148.56;100.00;61375.16;4931738;28;20035;-33
2021/05/01 14:48:32;;;;;;;3.10;1.17;;;;;;;-148.56;100.00;61375.16;4931035;28;20031;-29
2021/05/01 14:52:07;;;;;;;2.03;1.48;;;;;;;-148.56;100.00;61375.16;4926297;28;20109;-29
2021/05/01 14:55:32;;;;;;;2.00;1.30;;;;;;;-148.56;100.00;61375.16;4939065;28;20122;-27
2021/05/01 14:58:58;;;;;;;2.38;1.50;;;;;;;-148.56;100.00;61375.16;4928235;28;20637;-31
2021/05/01 15:02:22;;;;;;;2.40;1.35;;;;;;;-148.56;100.00;61375.16;4941081;28;20070;-27
2021/05/01 15:05:49;;;;;;;1.25;1.05;;;;;;;-148.56;100.00;61375.16;4929748;28;20039;-29
2021/05/01 15:09:16;;;;;;;1.77;1.00;;;;;;;-148.56;100.00;61375.16;4938497;28;20402;-27
2021/05/01 15:12:59;;;;;;;1.60;1.00;;;;;;;-148.56;100.00;61375.16;4920606;28;20039;-27
2021/05/01 15:16:43;;;;;;;2.97;1.33;;;;;;;-148.56;100.00;61375.16;4941290;28;20023;-26
2021/05/01 15:20:12;;;;;;;1.10;0.90;;;;;;;-148.56;100.00;61375.16;4938995;28;20066;-29
2021/05/01 15:23:37;;;;;;;2.05;1.35;;;;;;;-148.56;100.00;61375.16;4940395;28;20031;-30
2021/05/01 15:27:05;;;;;;;2.00;1.10;;;;;;;-148.56;100.00;61375.16;4938449;28;20071;-25
2021/05/01 15:30:36;;;;;;;4.10;1.38;;;;;;;-148.56;100.00;61375.16;4935433;28;20121;-29
2021/05/01 15:34:00;;;;;;;3.78;1.00;;;;;;;-148.56;100.00;61375.16;4930367;28;20035;-28
2021/05/01 15:37:24;;;;;;;3.08;1.63;;;;;;;-148.56;100.00;61375.16;4943631;28;20043;-29
2021/05/01 15:40:48;;;;;;;3.72;1.20;;;;;;;-148.56;100.00;61375.16;4925688;28;20031;-29